sensor_id;sensor_type;location;lat;lon;timestamp;P1;durP1;ratioP1;P2;durP2;ratioP2
10174;SDS011;18221;38.704;0.152;2023-07-09T00:12:23;12.80;;;10.50;;
10174;SDS011;18221;38.704;0.152;2023-07-09T00:14:52;13.27;;;9.77;;
10174;SDS011;18221;38.704;0.152;2023-07-09T00:17:23;13.88;;;9.60;;
10174;SDS011;18221;38.704;0.152;2023-07-09T00:19:55;13.98;;;9.95;;
10174;SDS011;18221;38.704;0.152;2023-07-09T00:22:24;13.88;;;9.77;;
10174;SDS011;18221;38.704;0.152;2023-07-09T00:24:52;10.52;;;9.38;;
10174;SDS011;18221;38.704;0.152;2023-07-09T00:27:25;12.98;;;9.45;;
10174;SDS011;18221;38.704;0.152;2023-07-09T00:29:56;11.43;;;8.68;;
10174;SDS011;18221;38.704;0.152;2023-07-09T00:32:24;12.75;;;9.60;;
10174;SDS011;18221;38.704;0.152;2023-07-09T00:34:53;14.75;;;10.02;;
10174;SDS011;18221;38.704;0.152;2023-07-09T00:37:23;12.88;;;9.52;;
10174;SDS011;18221;38.704;0.152;2023-07-09T00:39:53;10.38;;;9.02;;
10174;SDS011;18221;38.704;0.152;2023-07-09T00:42:21;14.05;;;10.10;;
10174;SDS011;18221;38.704;0.152;2023-07-09T00:44:51;13.23;;;9.77;;
10174;SDS011;18221;38.704;0.152;2023-07-09T00:47:25;15.50;;;10.00;;
10174;SDS011;18221;38.704;0.152;2023-07-09T00:50:11;12.98;;;9.75;;
10174;SDS011;18221;38.704;0.152;2023-07-09T00:52:57;17.30;;;9.70;;
10174;SDS011;18221;38.704;0.152;2023-07-09T00:55:33;12.23;;;9.20;;
10174;SDS011;18221;38.704;0.152;2023-07-09T00:58:11;15.35;;;9.75;;
10174;SDS011;18221;38.704;0.152;2023-07-09T01:00:43;15.68;;;10.02;;
10174;SDS011;18221;38.704;0.152;2023-07-09T01:03:22;10.60;;;8.85;;
10174;SDS011;18221;38.704;0.152;2023-07-09T01:05:58;15.05;;;9.45;;
10174;SDS011;18221;38.704;0.152;2023-07-09T01:08:27;12.40;;;9.32;;
10174;SDS011;18221;38.704;0.152;2023-07-09T01:10:59;13.05;;;9.95;;
10174;SDS011;18221;38.704;0.152;2023-07-09T01:13:29;14.90;;;10.15;;
10174;SDS011;18221;38.704;0.152;2023-07-09T01:16:00;12.85;;;9.00;;
10174;SDS011;18221;38.704;0.152;2023-07-09T01:18:29;12.93;;;9.27;;
10174;SDS011;18221;38.704;0.152;2023-07-09T01:21:07;11.38;;;9.13;;
10174;SDS011;18221;38.704;0.152;2023-07-09T01:23:40;11.82;;;8.93;;
10174;SDS011;18221;38.704;0.152;2023-07-09T01:26:09;17.75;;;9.40;;
10174;SDS011;18221;38.704;0.152;2023-07-09T01:28:39;14.05;;;8.52;;
10174;SDS011;18221;38.704;0.152;2023-07-09T01:31:08;13.35;;;8.02;;
10174;SDS011;18221;38.704;0.152;2023-07-09T01:33:38;10.75;;;7.15;;
10174;SDS011;18221;38.704;0.152;2023-07-09T01:36:11;16.27;;;8.80;;
10174;SDS011;18221;38.704;0.152;2023-07-09T01:38:43;10.95;;;8.02;;
10174;SDS011;18221;38.704;0.152;2023-07-09T01:41:11;11.30;;;8.10;;
10174;SDS011;18221;38.704;0.152;2023-07-09T01:43:40;13.20;;;8.25;;
10174;SDS011;18221;38.704;0.152;2023-07-09T01:46:09;12.77;;;8.02;;
10174;SDS011;18221;38.704;0.152;2023-07-09T01:48:39;16.13;;;8.13;;
10174;SDS011;18221;38.704;0.152;2023-07-09T01:51:08;13.95;;;8.07;;
10174;SDS011;18221;38.704;0.152;2023-07-09T01:53:41;10.80;;;7.53;;
10174;SDS011;18221;38.704;0.152;2023-07-09T01:56:11;15.60;;;9.35;;
10174;SDS011;18221;38.704;0.152;2023-07-09T01:58:39;13.90;;;8.55;;
10174;SDS011;18221;38.704;0.152;2023-07-09T02:01:08;12.35;;;8.18;;
10174;SDS011;18221;38.704;0.152;2023-07-09T02:03:37;13.27;;;8.25;;
10174;SDS011;18221;38.704;0.152;2023-07-09T02:06:05;12.93;;;8.30;;
10174;SDS011;18221;38.704;0.152;2023-07-09T02:08:37;13.52;;;7.97;;
10174;SDS011;18221;38.704;0.152;2023-07-09T02:11:06;13.15;;;8.70;;
10174;SDS011;18221;38.704;0.152;2023-07-09T02:13:34;12.52;;;8.32;;
10174;SDS011;18221;38.704;0.152;2023-07-09T02:16:02;12.13;;;8.45;;
10174;SDS011;18221;38.704;0.152;2023-07-09T02:18:31;11.65;;;8.40;;
10174;SDS011;18221;38.704;0.152;2023-07-09T02:21:00;10.15;;;7.22;;
10174;SDS011;18221;38.704;0.152;2023-07-09T02:23:28;11.27;;;8.00;;
10174;SDS011;18221;38.704;0.152;2023-07-09T02:25:58;12.40;;;7.65;;
10174;SDS011;18221;38.704;0.152;2023-07-09T02:28:26;10.48;;;7.30;;
10174;SDS011;18221;38.704;0.152;2023-07-09T02:30:54;11.45;;;7.28;;
10174;SDS011;18221;38.704;0.152;2023-07-09T02:33:22;13.98;;;7.18;;
10174;SDS011;18221;38.704;0.152;2023-07-09T02:35:50;11.98;;;7.82;;
10174;SDS011;18221;38.704;0.152;2023-07-09T02:38:18;13.05;;;8.27;;
10174;SDS011;18221;38.704;0.152;2023-07-09T02:40:46;11.82;;;8.27;;
10174;SDS011;18221;38.704;0.152;2023-07-09T02:43:15;15.38;;;8.55;;
10174;SDS011;18221;38.704;0.152;2023-07-09T02:45:43;12.52;;;7.85;;
10174;SDS011;18221;38.704;0.152;2023-07-09T02:48:12;13.23;;;8.10;;
10174;SDS011;18221;38.704;0.152;2023-07-09T02:50:40;11.10;;;7.75;;
10174;SDS011;18221;38.704;0.152;2023-07-09T02:53:08;13.32;;;7.80;;
10174;SDS011;18221;38.704;0.152;2023-07-09T02:55:36;13.15;;;8.30;;
10174;SDS011;18221;38.704;0.152;2023-07-09T02:58:04;11.23;;;8.23;;
10174;SDS011;18221;38.704;0.152;2023-07-09T03:00:34;12.85;;;8.10;;
10174;SDS011;18221;38.704;0.152;2023-07-09T03:03:02;9.45;;;7.75;;
10174;SDS011;18221;38.704;0.152;2023-07-09T03:05:30;12.45;;;7.97;;
10174;SDS011;18221;38.704;0.152;2023-07-09T03:07:58;13.60;;;8.55;;
10174;SDS011;18221;38.704;0.152;2023-07-09T03:10:27;14.25;;;7.80;;
10174;SDS011;18221;38.704;0.152;2023-07-09T03:12:56;16.27;;;9.05;;
10174;SDS011;18221;38.704;0.152;2023-07-09T03:15:24;12.40;;;9.00;;
10174;SDS011;18221;38.704;0.152;2023-07-09T03:17:53;16.92;;;9.73;;
10174;SDS011;18221;38.704;0.152;2023-07-09T03:20:21;12.57;;;9.13;;
10174;SDS011;18221;38.704;0.152;2023-07-09T03:22:50;16.35;;;9.75;;
10174;SDS011;18221;38.704;0.152;2023-07-09T03:25:18;16.75;;;9.30;;
10174;SDS011;18221;38.704;0.152;2023-07-09T03:27:47;13.48;;;9.63;;
10174;SDS011;18221;38.704;0.152;2023-07-09T03:30:15;16.00;;;9.63;;
10174;SDS011;18221;38.704;0.152;2023-07-09T03:32:43;16.42;;;10.20;;
10174;SDS011;18221;38.704;0.152;2023-07-09T03:35:13;20.23;;;10.15;;
10174;SDS011;18221;38.704;0.152;2023-07-09T03:37:42;18.35;;;10.77;;
10174;SDS011;18221;38.704;0.152;2023-07-09T03:40:10;13.77;;;10.35;;
10174;SDS011;18221;38.704;0.152;2023-07-09T03:42:46;15.90;;;10.05;;
10174;SDS011;18221;38.704;0.152;2023-07-09T03:45:15;17.75;;;10.98;;
10174;SDS011;18221;38.704;0.152;2023-07-09T03:47:43;18.70;;;11.35;;
10174;SDS011;18221;38.704;0.152;2023-07-09T03:50:13;17.92;;;11.40;;
10174;SDS011;18221;38.704;0.152;2023-07-09T03:52:41;18.13;;;11.10;;
10174;SDS011;18221;38.704;0.152;2023-07-09T03:55:15;16.35;;;10.30;;
10174;SDS011;18221;38.704;0.152;2023-07-09T03:57:43;18.55;;;10.85;;
10174;SDS011;18221;38.704;0.152;2023-07-09T04:00:12;17.60;;;10.07;;
10174;SDS011;18221;38.704;0.152;2023-07-09T04:02:41;16.45;;;10.50;;
10174;SDS011;18221;38.704;0.152;2023-07-09T04:05:10;15.95;;;9.82;;
10174;SDS011;18221;38.704;0.152;2023-07-09T04:07:39;15.02;;;10.20;;
10174;SDS011;18221;38.704;0.152;2023-07-09T04:10:08;16.08;;;9.48;;
10174;SDS011;18221;38.704;0.152;2023-07-09T04:12:37;13.07;;;9.68;;
10174;SDS011;18221;38.704;0.152;2023-07-09T04:15:05;11.73;;;8.80;;
10174;SDS011;18221;38.704;0.152;2023-07-09T04:17:35;17.27;;;9.70;;
10174;SDS011;18221;38.704;0.152;2023-07-09T04:20:03;19.27;;;9.90;;
10174;SDS011;18221;38.704;0.152;2023-07-09T04:22:36;14.95;;;9.50;;
10174;SDS011;18221;38.704;0.152;2023-07-09T04:25:05;13.15;;;9.75;;
10174;SDS011;18221;38.704;0.152;2023-07-09T04:27:36;14.88;;;9.77;;
10174;SDS011;18221;38.704;0.152;2023-07-09T04:30:05;17.83;;;9.65;;
10174;SDS011;18221;38.704;0.152;2023-07-09T04:32:37;15.57;;;9.48;;
10174;SDS011;18221;38.704;0.152;2023-07-09T04:35:08;16.60;;;9.27;;
10174;SDS011;18221;38.704;0.152;2023-07-09T04:37:39;12.82;;;7.50;;
10174;SDS011;18221;38.704;0.152;2023-07-09T04:40:09;11.80;;;7.57;;
10174;SDS011;18221;38.704;0.152;2023-07-09T04:42:39;11.77;;;7.88;;
10174;SDS011;18221;38.704;0.152;2023-07-09T04:45:08;11.70;;;7.57;;
10174;SDS011;18221;38.704;0.152;2023-07-09T04:47:38;11.80;;;7.75;;
10174;SDS011;18221;38.704;0.152;2023-07-09T04:50:07;12.68;;;8.43;;
10174;SDS011;18221;38.704;0.152;2023-07-09T04:52:40;14.77;;;9.13;;
10174;SDS011;18221;38.704;0.152;2023-07-09T04:55:08;15.50;;;10.10;;
10174;SDS011;18221;38.704;0.152;2023-07-09T04:57:51;12.95;;;9.00;;
10174;SDS011;18221;38.704;0.152;2023-07-09T05:00:19;12.40;;;9.25;;
10174;SDS011;18221;38.704;0.152;2023-07-09T05:02:48;17.75;;;9.50;;
10174;SDS011;18221;38.704;0.152;2023-07-09T05:05:16;13.60;;;10.25;;
10174;SDS011;18221;38.704;0.152;2023-07-09T05:07:45;14.50;;;10.13;;
10174;SDS011;18221;38.704;0.152;2023-07-09T05:10:13;19.67;;;10.80;;
10174;SDS011;18221;38.704;0.152;2023-07-09T05:12:48;19.27;;;10.60;;
10174;SDS011;18221;38.704;0.152;2023-07-09T05:15:17;15.25;;;10.25;;
10174;SDS011;18221;38.704;0.152;2023-07-09T05:17:48;16.70;;;9.48;;
10174;SDS011;18221;38.704;0.152;2023-07-09T05:20:17;16.25;;;9.30;;
10174;SDS011;18221;38.704;0.152;2023-07-09T05:22:48;13.53;;;8.53;;
10174;SDS011;18221;38.704;0.152;2023-07-09T05:25:16;14.30;;;9.10;;
10174;SDS011;18221;38.704;0.152;2023-07-09T05:27:44;13.43;;;8.95;;
10174;SDS011;18221;38.704;0.152;2023-07-09T05:30:12;13.80;;;8.93;;
10174;SDS011;18221;38.704;0.152;2023-07-09T05:32:40;14.93;;;8.87;;
10174;SDS011;18221;38.704;0.152;2023-07-09T05:35:08;21.53;;;9.33;;
10174;SDS011;18221;38.704;0.152;2023-07-09T05:37:36;14.98;;;9.32;;
10174;SDS011;18221;38.704;0.152;2023-07-09T05:40:07;15.63;;;9.85;;
10174;SDS011;18221;38.704;0.152;2023-07-09T05:42:36;14.65;;;9.48;;
10174;SDS011;18221;38.704;0.152;2023-07-09T05:45:04;20.27;;;10.60;;
10174;SDS011;18221;38.704;0.152;2023-07-09T05:47:34;14.77;;;9.87;;
10174;SDS011;18221;38.704;0.152;2023-07-09T05:50:02;16.47;;;10.80;;
10174;SDS011;18221;38.704;0.152;2023-07-09T05:52:31;18.20;;;10.13;;
10174;SDS011;18221;38.704;0.152;2023-07-09T05:54:59;18.55;;;10.68;;
10174;SDS011;18221;38.704;0.152;2023-07-09T05:57:29;15.55;;;10.18;;
10174;SDS011;18221;38.704;0.152;2023-07-09T05:59:57;17.85;;;10.25;;
10174;SDS011;18221;38.704;0.152;2023-07-09T06:02:25;18.73;;;11.07;;
10174;SDS011;18221;38.704;0.152;2023-07-09T06:04:53;22.63;;;11.33;;
10174;SDS011;18221;38.704;0.152;2023-07-09T06:07:23;17.57;;;10.40;;
10174;SDS011;18221;38.704;0.152;2023-07-09T06:09:51;14.85;;;10.25;;
10174;SDS011;18221;38.704;0.152;2023-07-09T06:12:19;20.15;;;10.77;;
10174;SDS011;18221;38.704;0.152;2023-07-09T06:14:49;14.40;;;10.00;;
10174;SDS011;18221;38.704;0.152;2023-07-09T06:17:16;17.67;;;10.45;;
10174;SDS011;18221;38.704;0.152;2023-07-09T06:19:45;16.58;;;10.48;;
10174;SDS011;18221;38.704;0.152;2023-07-09T06:22:13;17.77;;;10.65;;
10174;SDS011;18221;38.704;0.152;2023-07-09T06:24:41;15.77;;;9.70;;
10174;SDS011;18221;38.704;0.152;2023-07-09T06:27:11;14.40;;;8.77;;
10174;SDS011;18221;38.704;0.152;2023-07-09T06:29:40;11.45;;;8.75;;
10174;SDS011;18221;38.704;0.152;2023-07-09T06:32:09;13.95;;;9.07;;
10174;SDS011;18221;38.704;0.152;2023-07-09T06:34:37;14.95;;;10.05;;
10174;SDS011;18221;38.704;0.152;2023-07-09T06:37:05;12.23;;;8.95;;
10174;SDS011;18221;38.704;0.152;2023-07-09T06:39:33;9.82;;;8.30;;
10174;SDS011;18221;38.704;0.152;2023-07-09T06:42:01;11.38;;;8.27;;
10174;SDS011;18221;38.704;0.152;2023-07-09T06:44:30;9.82;;;8.13;;
10174;SDS011;18221;38.704;0.152;2023-07-09T06:46:58;13.43;;;8.25;;
10174;SDS011;18221;38.704;0.152;2023-07-09T06:49:28;12.68;;;8.07;;
10174;SDS011;18221;38.704;0.152;2023-07-09T06:51:56;12.82;;;7.82;;
10174;SDS011;18221;38.704;0.152;2023-07-09T06:54:24;10.35;;;7.63;;
10174;SDS011;18221;38.704;0.152;2023-07-09T06:56:53;8.68;;;7.00;;
10174;SDS011;18221;38.704;0.152;2023-07-09T06:59:21;13.27;;;7.82;;
10174;SDS011;18221;38.704;0.152;2023-07-09T07:01:49;12.35;;;7.88;;
10174;SDS011;18221;38.704;0.152;2023-07-09T07:04:17;10.95;;;7.68;;
10174;SDS011;18221;38.704;0.152;2023-07-09T07:06:47;14.60;;;7.82;;
10174;SDS011;18221;38.704;0.152;2023-07-09T07:09:15;11.10;;;7.57;;
10174;SDS011;18221;38.704;0.152;2023-07-09T07:11:43;14.82;;;8.40;;
10174;SDS011;18221;38.704;0.152;2023-07-09T07:14:11;12.07;;;7.70;;
10174;SDS011;18221;38.704;0.152;2023-07-09T07:16:39;11.48;;;7.63;;
10174;SDS011;18221;38.704;0.152;2023-07-09T07:19:07;16.38;;;8.23;;
10174;SDS011;18221;38.704;0.152;2023-07-09T07:21:35;11.77;;;7.53;;
10174;SDS011;18221;38.704;0.152;2023-07-09T07:24:05;11.70;;;7.72;;
10174;SDS011;18221;38.704;0.152;2023-07-09T07:26:33;8.73;;;6.72;;
10174;SDS011;18221;38.704;0.152;2023-07-09T07:29:02;9.43;;;7.50;;
10174;SDS011;18221;38.704;0.152;2023-07-09T07:31:29;9.10;;;6.80;;
10174;SDS011;18221;38.704;0.152;2023-07-09T07:33:58;10.57;;;7.38;;
10174;SDS011;18221;38.704;0.152;2023-07-09T07:36:26;10.68;;;7.30;;
10174;SDS011;18221;38.704;0.152;2023-07-09T07:38:54;9.93;;;7.07;;
10174;SDS011;18221;38.704;0.152;2023-07-09T07:41:24;13.48;;;7.93;;
10174;SDS011;18221;38.704;0.152;2023-07-09T07:43:53;10.35;;;7.03;;
10174;SDS011;18221;38.704;0.152;2023-07-09T07:46:21;9.93;;;7.13;;
10174;SDS011;18221;38.704;0.152;2023-07-09T07:48:50;7.82;;;6.53;;
10174;SDS011;18221;38.704;0.152;2023-07-09T07:51:18;10.70;;;7.82;;
10174;SDS011;18221;38.704;0.152;2023-07-09T07:53:47;10.30;;;6.70;;
10174;SDS011;18221;38.704;0.152;2023-07-09T07:56:15;11.93;;;7.25;;
10174;SDS011;18221;38.704;0.152;2023-07-09T07:58:45;12.55;;;8.00;;
10174;SDS011;18221;38.704;0.152;2023-07-09T08:01:13;11.20;;;7.28;;
10174;SDS011;18221;38.704;0.152;2023-07-09T08:03:41;11.73;;;7.13;;
10174;SDS011;18221;38.704;0.152;2023-07-09T08:06:09;12.73;;;7.65;;
10174;SDS011;18221;38.704;0.152;2023-07-09T08:08:37;11.15;;;7.10;;
10174;SDS011;18221;38.704;0.152;2023-07-09T08:11:06;12.05;;;7.00;;
10174;SDS011;18221;38.704;0.152;2023-07-09T08:13:34;12.70;;;6.78;;
10174;SDS011;18221;38.704;0.152;2023-07-09T08:16:05;11.70;;;7.28;;
10174;SDS011;18221;38.704;0.152;2023-07-09T08:18:36;11.43;;;6.63;;
10174;SDS011;18221;38.704;0.152;2023-07-09T08:21:04;12.43;;;7.07;;
10174;SDS011;18221;38.704;0.152;2023-07-09T08:23:35;13.10;;;7.10;;
10174;SDS011;18221;38.704;0.152;2023-07-09T08:26:04;11.02;;;6.75;;
10174;SDS011;18221;38.704;0.152;2023-07-09T08:28:33;15.15;;;6.93;;
10174;SDS011;18221;38.704;0.152;2023-07-09T08:31:02;12.82;;;6.65;;
10174;SDS011;18221;38.704;0.152;2023-07-09T08:33:31;12.23;;;6.88;;
10174;SDS011;18221;38.704;0.152;2023-07-09T08:35:59;12.90;;;6.20;;
10174;SDS011;18221;38.704;0.152;2023-07-09T08:38:31;10.20;;;5.82;;
10174;SDS011;18221;38.704;0.152;2023-07-09T08:40:59;12.32;;;6.40;;
10174;SDS011;18221;38.704;0.152;2023-07-09T08:43:35;11.50;;;6.05;;
10174;SDS011;18221;38.704;0.152;2023-07-09T08:46:19;13.60;;;6.55;;
10174;SDS011;18221;38.704;0.152;2023-07-09T08:49:02;10.70;;;6.15;;
10174;SDS011;18221;38.704;0.152;2023-07-09T08:51:43;10.77;;;5.65;;
10174;SDS011;18221;38.704;0.152;2023-07-09T08:54:14;10.45;;;5.90;;
10174;SDS011;18221;38.704;0.152;2023-07-09T08:56:51;9.52;;;5.95;;
10174;SDS011;18221;38.704;0.152;2023-07-09T08:59:21;14.18;;;5.88;;
10174;SDS011;18221;38.704;0.152;2023-07-09T09:01:52;13.07;;;6.03;;
10174;SDS011;18221;38.704;0.152;2023-07-09T09:04:25;10.20;;;5.63;;
10174;SDS011;18221;38.704;0.152;2023-07-09T09:06:59;13.55;;;6.22;;
10174;SDS011;18221;38.704;0.152;2023-07-09T09:09:40;8.63;;;5.00;;
10174;SDS011;18221;38.704;0.152;2023-07-09T09:12:18;10.30;;;6.07;;
10174;SDS011;18221;38.704;0.152;2023-07-09T09:14:53;10.80;;;6.03;;
10174;SDS011;18221;38.704;0.152;2023-07-09T09:17:31;13.48;;;5.97;;
10174;SDS011;18221;38.704;0.152;2023-07-09T09:20:06;11.20;;;5.90;;
10174;SDS011;18221;38.704;0.152;2023-07-09T09:22:44;11.65;;;6.28;;
10174;SDS011;18221;38.704;0.152;2023-07-09T09:25:22;10.55;;;6.07;;
10174;SDS011;18221;38.704;0.152;2023-07-09T09:27:55;12.95;;;6.30;;
10174;SDS011;18221;38.704;0.152;2023-07-09T09:30:24;15.10;;;6.22;;
10174;SDS011;18221;38.704;0.152;2023-07-09T09:32:54;14.75;;;6.35;;
10174;SDS011;18221;38.704;0.152;2023-07-09T09:35:26;12.77;;;5.90;;
10174;SDS011;18221;38.704;0.152;2023-07-09T09:37:57;10.98;;;6.15;;
10174;SDS011;18221;38.704;0.152;2023-07-09T09:40:33;7.05;;;5.57;;
10174;SDS011;18221;38.704;0.152;2023-07-09T09:43:07;11.02;;;6.22;;
10174;SDS011;18221;38.704;0.152;2023-07-09T09:45:40;10.10;;;5.72;;
10174;SDS011;18221;38.704;0.152;2023-07-09T09:48:15;10.82;;;6.20;;
10174;SDS011;18221;38.704;0.152;2023-07-09T09:50:46;10.82;;;5.82;;
10174;SDS011;18221;38.704;0.152;2023-07-09T09:53:18;10.65;;;5.88;;
10174;SDS011;18221;38.704;0.152;2023-07-09T09:55:49;9.45;;;5.90;;
10174;SDS011;18221;38.704;0.152;2023-07-09T09:58:20;7.55;;;5.75;;
10174;SDS011;18221;38.704;0.152;2023-07-09T10:00:54;10.35;;;5.95;;
10174;SDS011;18221;38.704;0.152;2023-07-09T10:03:33;10.75;;;6.28;;
10174;SDS011;18221;38.704;0.152;2023-07-09T10:06:06;11.88;;;6.25;;
10174;SDS011;18221;38.704;0.152;2023-07-09T10:08:44;11.35;;;6.75;;
10174;SDS011;18221;38.704;0.152;2023-07-09T10:11:25;13.15;;;6.97;;
10174;SDS011;18221;38.704;0.152;2023-07-09T10:14:04;9.15;;;5.60;;
10174;SDS011;18221;38.704;0.152;2023-07-09T10:16:49;8.90;;;5.80;;
10174;SDS011;18221;38.704;0.152;2023-07-09T10:19:29;15.77;;;6.78;;
10174;SDS011;18221;38.704;0.152;2023-07-09T10:22:06;9.93;;;5.85;;
10174;SDS011;18221;38.704;0.152;2023-07-09T10:24:45;11.25;;;6.30;;
10174;SDS011;18221;38.704;0.152;2023-07-09T10:27:27;12.60;;;6.68;;
10174;SDS011;18221;38.704;0.152;2023-07-09T10:33:09;14.73;;;6.47;;
10174;SDS011;18221;38.704;0.152;2023-07-09T10:35:44;9.13;;;6.05;;
10174;SDS011;18221;38.704;0.152;2023-07-09T10:38:31;13.63;;;7.20;;
10174;SDS011;18221;38.704;0.152;2023-07-09T10:41:14;13.32;;;6.55;;
10174;SDS011;18221;38.704;0.152;2023-07-09T10:43:48;13.98;;;6.95;;
10174;SDS011;18221;38.704;0.152;2023-07-09T10:46:26;10.18;;;6.13;;
10174;SDS011;18221;38.704;0.152;2023-07-09T10:49:01;9.60;;;6.15;;
10174;SDS011;18221;38.704;0.152;2023-07-09T10:51:37;14.38;;;6.78;;
10174;SDS011;18221;38.704;0.152;2023-07-09T10:54:12;12.95;;;6.20;;
10174;SDS011;18221;38.704;0.152;2023-07-09T10:56:58;10.20;;;6.65;;
10174;SDS011;18221;38.704;0.152;2023-07-09T10:59:34;9.73;;;6.47;;
10174;SDS011;18221;38.704;0.152;2023-07-09T11:02:13;7.78;;;6.07;;
10174;SDS011;18221;38.704;0.152;2023-07-09T11:04:52;12.52;;;6.28;;
10174;SDS011;18221;38.704;0.152;2023-07-09T11:07:27;11.43;;;6.25;;
10174;SDS011;18221;38.704;0.152;2023-07-09T11:10:01;11.10;;;7.07;;
10174;SDS011;18221;38.704;0.152;2023-07-09T11:12:35;11.45;;;6.50;;
10174;SDS011;18221;38.704;0.152;2023-07-09T11:15:09;11.90;;;6.53;;
10174;SDS011;18221;38.704;0.152;2023-07-09T11:17:44;12.18;;;6.20;;
10174;SDS011;18221;38.704;0.152;2023-07-09T11:20:18;12.43;;;5.85;;
10174;SDS011;18221;38.704;0.152;2023-07-09T11:22:54;11.25;;;6.32;;
10174;SDS011;18221;38.704;0.152;2023-07-09T11:25:30;9.85;;;5.60;;
10174;SDS011;18221;38.704;0.152;2023-07-09T11:28:09;10.38;;;6.28;;
10174;SDS011;18221;38.704;0.152;2023-07-09T11:30:47;11.27;;;6.15;;
10174;SDS011;18221;38.704;0.152;2023-07-09T11:33:18;10.30;;;5.72;;
10174;SDS011;18221;38.704;0.152;2023-07-09T11:35:53;10.77;;;5.80;;
10174;SDS011;18221;38.704;0.152;2023-07-09T11:38:40;10.77;;;5.85;;
10174;SDS011;18221;38.704;0.152;2023-07-09T11:41:22;11.95;;;5.35;;
10174;SDS011;18221;38.704;0.152;2023-07-09T11:44:16;11.10;;;6.03;;
10174;SDS011;18221;38.704;0.152;2023-07-09T11:46:53;13.00;;;6.00;;
10174;SDS011;18221;38.704;0.152;2023-07-09T11:49:49;9.77;;;5.88;;
10174;SDS011;18221;38.704;0.152;2023-07-09T11:52:27;7.75;;;6.00;;
10174;SDS011;18221;38.704;0.152;2023-07-09T11:55:03;14.75;;;6.85;;
10174;SDS011;18221;38.704;0.152;2023-07-09T11:57:52;12.80;;;6.07;;
10174;SDS011;18221;38.704;0.152;2023-07-09T12:00:21;12.90;;;6.18;;
10174;SDS011;18221;38.704;0.152;2023-07-09T12:02:50;8.13;;;5.25;;
10174;SDS011;18221;38.704;0.152;2023-07-09T12:05:19;8.45;;;5.47;;
10174;SDS011;18221;38.704;0.152;2023-07-09T12:07:53;9.43;;;5.38;;
10174;SDS011;18221;38.704;0.152;2023-07-09T12:10:27;11.30;;;5.72;;
10174;SDS011;18221;38.704;0.152;2023-07-09T12:13:00;17.50;;;6.10;;
10174;SDS011;18221;38.704;0.152;2023-07-09T12:15:29;9.73;;;5.75;;
10174;SDS011;18221;38.704;0.152;2023-07-09T12:17:59;10.10;;;5.28;;
10174;SDS011;18221;38.704;0.152;2023-07-09T12:20:30;15.68;;;6.35;;
10174;SDS011;18221;38.704;0.152;2023-07-09T12:23:09;11.77;;;5.80;;
10174;SDS011;18221;38.704;0.152;2023-07-09T12:25:48;9.80;;;5.88;;
10174;SDS011;18221;38.704;0.152;2023-07-09T12:28:19;12.15;;;5.45;;
10174;SDS011;18221;38.704;0.152;2023-07-09T12:30:49;9.52;;;5.35;;
10174;SDS011;18221;38.704;0.152;2023-07-09T12:33:20;12.82;;;5.95;;
10174;SDS011;18221;38.704;0.152;2023-07-09T12:35:53;7.70;;;5.00;;
10174;SDS011;18221;38.704;0.152;2023-07-09T12:38:26;13.40;;;6.03;;
10174;SDS011;18221;38.704;0.152;2023-07-09T12:40:59;13.65;;;6.00;;
10174;SDS011;18221;38.704;0.152;2023-07-09T12:43:31;9.48;;;5.50;;
10174;SDS011;18221;38.704;0.152;2023-07-09T12:45:59;11.93;;;5.70;;
10174;SDS011;18221;38.704;0.152;2023-07-09T12:48:28;11.70;;;5.68;;
10174;SDS011;18221;38.704;0.152;2023-07-09T12:50:57;10.27;;;5.40;;
10174;SDS011;18221;38.704;0.152;2023-07-09T12:53:27;11.85;;;5.82;;
10174;SDS011;18221;38.704;0.152;2023-07-09T12:55:58;10.15;;;5.60;;
10174;SDS011;18221;38.704;0.152;2023-07-09T12:58:28;9.13;;;5.05;;
10174;SDS011;18221;38.704;0.152;2023-07-09T13:00:59;9.07;;;5.45;;
10174;SDS011;18221;38.704;0.152;2023-07-09T13:03:32;9.35;;;5.65;;
10174;SDS011;18221;38.704;0.152;2023-07-09T13:06:02;8.95;;;5.70;;
10174;SDS011;18221;38.704;0.152;2023-07-09T13:08:40;8.93;;;5.40;;
10174;SDS011;18221;38.704;0.152;2023-07-09T13:11:15;10.13;;;5.95;;
10174;SDS011;18221;38.704;0.152;2023-07-09T13:13:53;9.13;;;5.78;;
10174;SDS011;18221;38.704;0.152;2023-07-09T13:16:23;10.63;;;5.57;;
10174;SDS011;18221;38.704;0.152;2023-07-09T13:18:52;12.13;;;5.93;;
10174;SDS011;18221;38.704;0.152;2023-07-09T13:21:21;10.45;;;6.03;;
10174;SDS011;18221;38.704;0.152;2023-07-09T13:23:54;10.52;;;5.80;;
10174;SDS011;18221;38.704;0.152;2023-07-09T13:26:27;10.73;;;5.93;;
10174;SDS011;18221;38.704;0.152;2023-07-09T13:28:55;10.70;;;5.63;;
10174;SDS011;18221;38.704;0.152;2023-07-09T13:31:23;12.18;;;5.70;;
10174;SDS011;18221;38.704;0.152;2023-07-09T13:33:52;12.88;;;5.72;;
10174;SDS011;18221;38.704;0.152;2023-07-09T13:36:24;11.18;;;5.57;;
10174;SDS011;18221;38.704;0.152;2023-07-09T13:38:53;9.43;;;5.60;;
10174;SDS011;18221;38.704;0.152;2023-07-09T13:41:21;10.35;;;5.68;;
10174;SDS011;18221;38.704;0.152;2023-07-09T13:43:52;11.02;;;5.65;;
10174;SDS011;18221;38.704;0.152;2023-07-09T13:46:21;9.05;;;5.15;;
10174;SDS011;18221;38.704;0.152;2023-07-09T13:48:51;11.23;;;5.45;;
10174;SDS011;18221;38.704;0.152;2023-07-09T13:51:20;12.77;;;5.85;;
10174;SDS011;18221;38.704;0.152;2023-07-09T13:53:50;10.73;;;5.78;;
10174;SDS011;18221;38.704;0.152;2023-07-09T13:56:23;10.90;;;5.85;;
10174;SDS011;18221;38.704;0.152;2023-07-09T13:58:52;11.85;;;5.10;;
10174;SDS011;18221;38.704;0.152;2023-07-09T14:01:21;8.50;;;5.18;;
10174;SDS011;18221;38.704;0.152;2023-07-09T14:03:51;9.85;;;5.78;;
10174;SDS011;18221;38.704;0.152;2023-07-09T14:06:23;8.75;;;5.13;;
10174;SDS011;18221;38.704;0.152;2023-07-09T14:08:52;7.90;;;5.03;;
10174;SDS011;18221;38.704;0.152;2023-07-09T14:11:20;7.50;;;4.80;;
10174;SDS011;18221;38.704;0.152;2023-07-09T14:13:48;12.80;;;5.82;;
10174;SDS011;18221;38.704;0.152;2023-07-09T14:16:19;9.13;;;5.20;;
10174;SDS011;18221;38.704;0.152;2023-07-09T14:18:47;8.75;;;4.63;;
10174;SDS011;18221;38.704;0.152;2023-07-09T14:21:17;10.77;;;5.30;;
10174;SDS011;18221;38.704;0.152;2023-07-09T14:23:51;9.05;;;5.40;;
10174;SDS011;18221;38.704;0.152;2023-07-09T14:26:19;9.10;;;5.10;;
10174;SDS011;18221;38.704;0.152;2023-07-09T14:28:47;10.52;;;5.32;;
10174;SDS011;18221;38.704;0.152;2023-07-09T14:31:21;8.63;;;5.10;;
10174;SDS011;18221;38.704;0.152;2023-07-09T14:33:54;8.80;;;4.78;;
10174;SDS011;18221;38.704;0.152;2023-07-09T14:36:42;9.02;;;5.25;;
10174;SDS011;18221;38.704;0.152;2023-07-09T14:39:10;8.27;;;4.70;;
10174;SDS011;18221;38.704;0.152;2023-07-09T14:41:38;10.30;;;5.20;;
10174;SDS011;18221;38.704;0.152;2023-07-09T14:44:14;10.68;;;5.38;;
10174;SDS011;18221;38.704;0.152;2023-07-09T14:46:52;9.32;;;5.15;;
10174;SDS011;18221;38.704;0.152;2023-07-09T14:49:21;7.55;;;5.47;;
10174;SDS011;18221;38.704;0.152;2023-07-09T14:51:50;8.95;;;5.10;;
10174;SDS011;18221;38.704;0.152;2023-07-09T14:54:19;7.82;;;4.88;;
10174;SDS011;18221;38.704;0.152;2023-07-09T14:56:50;10.73;;;4.90;;
10174;SDS011;18221;38.704;0.152;2023-07-09T14:59:20;9.00;;;5.22;;
10174;SDS011;18221;38.704;0.152;2023-07-09T15:01:52;9.38;;;5.22;;
10174;SDS011;18221;38.704;0.152;2023-07-09T15:04:28;8.25;;;4.70;;
10174;SDS011;18221;38.704;0.152;2023-07-09T15:06:59;10.13;;;5.20;;
10174;SDS011;18221;38.704;0.152;2023-07-09T15:09:27;8.25;;;4.93;;
10174;SDS011;18221;38.704;0.152;2023-07-09T15:11:56;8.55;;;5.05;;
10174;SDS011;18221;38.704;0.152;2023-07-09T15:14:26;9.07;;;5.05;;